Terminal Aerodrome Forecast
Issued by NWS

Home | Current Version | Previous Version | Text Only | Print | Product List | Glossary Off
Versions: 1 2 3 4 5 6 7 8 9 10 11 12 13 14 15 16 17 18

000
FTUS43 KMPX 191000 AAA
TAFRNH
TAF AMD
KRNH 191028Z 1910/2006 17010KT P6SM SCT100 BKN250
     FM191400 17012G18KT P6SM BKN120
     FM191600 19017G24KT P6SM VCSH BKN040 OVC080
     FM200000 19012KT P6SM VCSH BKN035 OVC050=

USA.gov is the U.S. government's official web portal to all federal, state and local government web resources and services.